ガーンジー島 の空港の天気 - METARとTAF

ガーンジー空港 ( EGJB / GCI ) - ガーンジー島 ガーンジー島
飛行場実況気象(Metar)
観測時間04/10 05:50 BST (04/10 04:50 UTC)
風向・風速東南東 5m/s
視程10km以上
天気現象
なし
気温15℃
湿度55%
気圧1021hPa
METAREGJB 100450Z 12009KT CAVOK 15/06 Q1021
過去の天気等 Google飛行場航空写真 Wunderground天気予報

過去48時間のMETAR

飛行場予報(TAF)
発表時間: 4/10 03:01 BST (4/10 02:01 UTC)
予報対象時間: 10日4時 BST ~ 10日13時 BST
風向・風速東 5m/s
視程10km以上
なし
10日4時 BST ~ 10日10時 BST に一時的に
視程8000m
10日4時 BST ~ 10日8時 BST に 確率 30% で一時的に
視程4000m
天気現象もや
TAF EGJB 100201Z 1003/1012 10009KT CAVOK
TEMPO 1003/1009 8000
PROB30 TEMPO 1003/1007 4000 BR